Terminal Aerodrome Forecast
Issued by NWS Tiyan, Guam

Home | Current Version | Previous Version | Text Only | Print | Product List | Glossary On
Versions: 1 2 3 4 5 6 7 8 9 10 11 12 13
000
FTPQ31 PGUM 291728
TAFGUM
TAF
PGUM 291728Z 2918/3024 VRB03KT P6SM VCSH FEW020 SCT050
     FM300100 26007KT P6SM VCSH SCT018 SCT035
      TEMPO 3002/3006 5SM SHRA SCT015 OVC035
     FM300800 VRB03KT P6SM VCSH SCT020=

USA.gov is the U.S. government's official web portal to all federal, state and local government web resources and services.